This is the latest recevied weather packets stored in our database for station/object XQ6AK-15. If no packets are shown the sender has not sent any weather packets the latest 1 day(s).
| Time | Temp. | Humidity | Pressure | Rain* | Wind** | Luminosity | Snow |
|---|---|---|---|---|---|---|---|
| 1778097032 | 10.56° C | 93% | 1012.5 hPa | 0 mm | - | 59 W/m² | - |
| 1778096426 | 11.11° C | 90% | 1011.9 hPa | 0 mm | - | 56 W/m² | - |
| 1778095213 | 11.67° C | 85% | 1011.5 hPa | 0 mm | - | 128 W/m² | - |
| 1778094910 | 11.67° C | 85% | 1011.5 hPa | 0 mm | - | 171 W/m² | - |
| 1778093394 | 11.11° C | 88% | 1011 hPa | 0 mm | - | 163 W/m² | - |
| 1778093092 | 11.11° C | 89% | 1010.9 hPa | 0 mm | - | 137 W/m² | - |
| 1778092789 | 10.56° C | 90% | 1010.7 hPa | 0 mm | - | 134 W/m² | - |
| 1778092181 | 10.56° C | 91% | 1010.7 hPa | 0 mm | - | 99 W/m² | - |
| 1778091879 | 10.56° C | 91% | 1010.7 hPa | 0 mm | - | 89 W/m² | - |
| 1778090970 | 10.56° C | 87% | 1010.6 hPa | 0 mm | - | 101 W/m² | - |
| 1778090666 | 10.56° C | 91% | 1010.5 hPa | 0 mm | - | 104 W/m² | - |
| 1778090060 | 10.56° C | 90% | 1010.3 hPa | 0 mm | - | 78 W/m² | - |
| 1778087939 | 10° C | 91% | 1010.1 hPa | 0 mm | - | 106 W/m² | - |
| 1778087334 | 10.56° C | 92% | 1009.9 hPa | 0 mm | - | 85 W/m² | - |
| 1778087030 | 10° C | 92% | 1009.8 hPa | 0 mm | - | 103 W/m² | - |
| 1778086123 | 10.56° C | 91% | 1009.8 hPa | 0 mm | - | 144 W/m² | - |
| 1778084297 | 10° C | 94% | 1009.6 hPa | 0 mm | - | 86 W/m² | - |
| 1778083994 | 10° C | 94% | 1009.6 hPa | 0 mm | - | 70 W/m² | - |
| 1778083388 | 10° C | 93% | 1009.3 hPa | 0 mm | - | 77 W/m² | - |
| 1778083087 | 10° C | 92% | 1009.2 hPa | 0 mm | - | 99 W/m² | - |
| 1778082783 | 10° C | 93% | 1009.1 hPa | 0 mm | - | 161 W/m² | - |
| 1778078319 | 8.33° C | 99% | 1007.9 hPa | 0 mm | - | 93 W/m² | - |
| 1778077714 | 8.33° C | 99% | 1007.8 hPa | 0 mm | - | 69 W/m² | - |
| 1778076202 | 7.78° C | 99% | 1007.8 hPa | 0 mm | - | 24 W/m² | - |
| 1778075292 | 7.78° C | 99% | 1007.7 hPa | 0 mm | - | 13 W/m² | - |
* Rain latest hour (hover to see other rain measurements)
** Current wind speed in m/s (hover to see current wind gust speed)